sensor_id;sensor_type;location;lat;lon;timestamp;temperature;humidity
21123;DHT22;10719;48.130;11.630;2022-10-26T00:00:26;9.90;99.90
21123;DHT22;10719;48.130;11.630;2022-10-26T00:02:55;10.00;99.90
21123;DHT22;10719;48.130;11.630;2022-10-26T00:05:22;10.00;99.90
21123;DHT22;10719;48.130;11.630;2022-10-26T00:07:48;10.00;99.90
21123;DHT22;10719;48.130;11.630;2022-10-26T00:10:14;10.10;99.90
21123;DHT22;10719;48.130;11.630;2022-10-26T00:12:40;10.10;99.90
21123;DHT22;10719;48.130;11.630;2022-10-26T00:15:06;10.10;99.90
21123;DHT22;10719;48.130;11.630;2022-10-26T00:17:32;10.10;99.90
21123;DHT22;10719;48.130;11.630;2022-10-26T00:19:58;10.20;99.90
21123;DHT22;10719;48.130;11.630;2022-10-26T00:22:25;10.30;99.90
21123;DHT22;10719;48.130;11.630;2022-10-26T00:24:50;10.30;99.90
21123;DHT22;10719;48.130;11.630;2022-10-26T00:27:16;10.30;99.90
21123;DHT22;10719;48.130;11.630;2022-10-26T00:29:42;10.30;99.90
21123;DHT22;10719;48.130;11.630;2022-10-26T00:32:07;10.30;99.90
21123;DHT22;10719;48.130;11.630;2022-10-26T00:34:33;10.20;99.90
21123;DHT22;10719;48.130;11.630;2022-10-26T00:36:58;10.20;99.90
21123;DHT22;10719;48.130;11.630;2022-10-26T00:39:24;10.20;99.90
21123;DHT22;10719;48.130;11.630;2022-10-26T00:41:49;10.30;99.90
21123;DHT22;10719;48.130;11.630;2022-10-26T00:47:36;10.20;99.90
21123;DHT22;10719;48.130;11.630;2022-10-26T00:50:34;10.20;99.90
21123;DHT22;10719;48.130;11.630;2022-10-26T00:53:03;10.20;99.90
21123;DHT22;10719;48.130;11.630;2022-10-26T00:55:32;10.10;99.90
21123;DHT22;10719;48.130;11.630;2022-10-26T00:58:00;10.10;99.90
21123;DHT22;10719;48.130;11.630;2022-10-26T01:00:27;10.20;99.90
21123;DHT22;10719;48.130;11.630;2022-10-26T01:02:54;10.20;99.90
21123;DHT22;10719;48.130;11.630;2022-10-26T01:05:21;10.20;99.90
21123;DHT22;10719;48.130;11.630;2022-10-26T01:07:49;10.20;99.90
21123;DHT22;10719;48.130;11.630;2022-10-26T01:10:16;10.30;99.90
21123;DHT22;10719;48.130;11.630;2022-10-26T01:12:43;10.30;99.90
21123;DHT22;10719;48.130;11.630;2022-10-26T01:15:09;10.40;99.90
21123;DHT22;10719;48.130;11.630;2022-10-26T01:17:52;10.40;99.90
21123;DHT22;10719;48.130;11.630;2022-10-26T01:23:15;10.40;99.90
21123;DHT22;10719;48.130;11.630;2022-10-26T01:25:55;10.50;99.90
21123;DHT22;10719;48.130;11.630;2022-10-26T01:31:10;10.40;99.90
21123;DHT22;10719;48.130;11.630;2022-10-26T01:33:51;10.40;99.90
21123;DHT22;10719;48.130;11.630;2022-10-26T01:36:56;10.40;99.90
21123;DHT22;10719;48.130;11.630;2022-10-26T01:39:37;10.40;99.90
21123;DHT22;10719;48.130;11.630;2022-10-26T01:42:04;10.40;99.90
21123;DHT22;10719;48.130;11.630;2022-10-26T01:44:39;10.40;99.90
21123;DHT22;10719;48.130;11.630;2022-10-26T01:47:08;10.50;99.90
21123;DHT22;10719;48.130;11.630;2022-10-26T01:49:38;10.50;99.90
21123;DHT22;10719;48.130;11.630;2022-10-26T01:52:08;10.50;99.90
21123;DHT22;10719;48.130;11.630;2022-10-26T01:54:35;10.50;99.90
21123;DHT22;10719;48.130;11.630;2022-10-26T01:57:04;10.50;99.90
21123;DHT22;10719;48.130;11.630;2022-10-26T01:59:57;10.50;99.90
21123;DHT22;10719;48.130;11.630;2022-10-26T02:05:18;10.40;99.90
21123;DHT22;10719;48.130;11.630;2022-10-26T02:13:30;10.60;99.90
21123;DHT22;10719;48.130;11.630;2022-10-26T02:16:03;10.60;99.90
21123;DHT22;10719;48.130;11.630;2022-10-26T02:18:46;10.60;99.90
21123;DHT22;10719;48.130;11.630;2022-10-26T02:21:20;10.70;99.90
21123;DHT22;10719;48.130;11.630;2022-10-26T02:23:48;10.60;99.90
21123;DHT22;10719;48.130;11.630;2022-10-26T02:26:19;10.50;99.90
21123;DHT22;10719;48.130;11.630;2022-10-26T02:28:49;10.50;99.90
21123;DHT22;10719;48.130;11.630;2022-10-26T02:31:16;10.60;99.90
21123;DHT22;10719;48.130;11.630;2022-10-26T02:33:45;10.60;99.90
21123;DHT22;10719;48.130;11.630;2022-10-26T02:36:17;10.70;99.90
21123;DHT22;10719;48.130;11.630;2022-10-26T02:38:46;10.80;99.90
21123;DHT22;10719;48.130;11.630;2022-10-26T02:41:13;10.70;99.90
21123;DHT22;10719;48.130;11.630;2022-10-26T02:43:44;10.70;99.90
21123;DHT22;10719;48.130;11.630;2022-10-26T02:46:14;10.60;99.90
21123;DHT22;10719;48.130;11.630;2022-10-26T02:48:41;10.70;99.90
21123;DHT22;10719;48.130;11.630;2022-10-26T02:54:06;10.80;99.90
21123;DHT22;10719;48.130;11.630;2022-10-26T02:56:54;10.80;99.90
21123;DHT22;10719;48.130;11.630;2022-10-26T02:59:22;10.80;99.90
21123;DHT22;10719;48.130;11.630;2022-10-26T03:01:50;10.80;99.90
21123;DHT22;10719;48.130;11.630;2022-10-26T03:04:17;10.80;99.90
21123;DHT22;10719;48.130;11.630;2022-10-26T03:06:53;10.80;99.90
21123;DHT22;10719;48.130;11.630;2022-10-26T03:09:19;10.80;99.90
21123;DHT22;10719;48.130;11.630;2022-10-26T03:11:44;10.80;99.90
21123;DHT22;10719;48.130;11.630;2022-10-26T03:14:10;10.80;99.90
21123;DHT22;10719;48.130;11.630;2022-10-26T03:16:36;10.80;99.90
21123;DHT22;10719;48.130;11.630;2022-10-26T03:19:01;10.80;99.90
21123;DHT22;10719;48.130;11.630;2022-10-26T03:21:27;10.80;99.90
21123;DHT22;10719;48.130;11.630;2022-10-26T03:23:53;10.70;99.90
21123;DHT22;10719;48.130;11.630;2022-10-26T03:26:19;10.70;99.90
21123;DHT22;10719;48.130;11.630;2022-10-26T03:28:44;10.60;99.90
21123;DHT22;10719;48.130;11.630;2022-10-26T03:31:10;10.70;99.90
21123;DHT22;10719;48.130;11.630;2022-10-26T03:33:36;10.70;99.90
21123;DHT22;10719;48.130;11.630;2022-10-26T03:36:01;10.70;99.90
21123;DHT22;10719;48.130;11.630;2022-10-26T03:38:27;10.80;99.90
21123;DHT22;10719;48.130;11.630;2022-10-26T03:40:52;10.80;99.90
21123;DHT22;10719;48.130;11.630;2022-10-26T03:43:18;10.80;99.90
21123;DHT22;10719;48.130;11.630;2022-10-26T03:45:44;10.80;99.90
21123;DHT22;10719;48.130;11.630;2022-10-26T03:48:09;10.70;99.90
21123;DHT22;10719;48.130;11.630;2022-10-26T03:50:35;10.70;99.90
21123;DHT22;10719;48.130;11.630;2022-10-26T03:53:00;10.70;99.90
21123;DHT22;10719;48.130;11.630;2022-10-26T03:55:26;10.70;99.90
21123;DHT22;10719;48.130;11.630;2022-10-26T03:57:51;10.60;99.90
21123;DHT22;10719;48.130;11.630;2022-10-26T04:00:17;10.70;99.90
21123;DHT22;10719;48.130;11.630;2022-10-26T04:02:44;10.70;99.90
21123;DHT22;10719;48.130;11.630;2022-10-26T04:05:15;10.70;99.90
21123;DHT22;10719;48.130;11.630;2022-10-26T04:07:41;10.70;99.90
21123;DHT22;10719;48.130;11.630;2022-10-26T04:10:07;10.80;99.90
21123;DHT22;10719;48.130;11.630;2022-10-26T04:12:36;10.80;99.90
21123;DHT22;10719;48.130;11.630;2022-10-26T04:15:02;10.90;99.90
21123;DHT22;10719;48.130;11.630;2022-10-26T04:17:28;10.90;99.90
21123;DHT22;10719;48.130;11.630;2022-10-26T04:19:54;10.90;99.90
21123;DHT22;10719;48.130;11.630;2022-10-26T04:22:19;10.90;99.90
21123;DHT22;10719;48.130;11.630;2022-10-26T04:24:45;10.90;99.90
21123;DHT22;10719;48.130;11.630;2022-10-26T04:27:10;10.90;99.90
21123;DHT22;10719;48.130;11.630;2022-10-26T04:29:36;10.90;99.90
21123;DHT22;10719;48.130;11.630;2022-10-26T04:32:01;11.00;99.90
21123;DHT22;10719;48.130;11.630;2022-10-26T04:34:27;11.00;99.90
21123;DHT22;10719;48.130;11.630;2022-10-26T04:36:53;11.00;99.90
21123;DHT22;10719;48.130;11.630;2022-10-26T04:39:19;11.10;99.90
21123;DHT22;10719;48.130;11.630;2022-10-26T04:41:44;11.10;99.90
21123;DHT22;10719;48.130;11.630;2022-10-26T04:44:10;11.00;99.90
21123;DHT22;10719;48.130;11.630;2022-10-26T04:46:36;11.10;99.90
21123;DHT22;10719;48.130;11.630;2022-10-26T04:49:01;11.10;99.90
21123;DHT22;10719;48.130;11.630;2022-10-26T04:51:27;11.10;99.90
21123;DHT22;10719;48.130;11.630;2022-10-26T04:53:53;11.10;99.90
21123;DHT22;10719;48.130;11.630;2022-10-26T04:56:19;11.20;99.90
21123;DHT22;10719;48.130;11.630;2022-10-26T04:58:45;11.20;99.90
21123;DHT22;10719;48.130;11.630;2022-10-26T05:01:10;11.20;99.90
21123;DHT22;10719;48.130;11.630;2022-10-26T05:03:36;11.20;99.90
21123;DHT22;10719;48.130;11.630;2022-10-26T05:06:01;11.30;99.90
21123;DHT22;10719;48.130;11.630;2022-10-26T05:08:27;11.30;99.90
21123;DHT22;10719;48.130;11.630;2022-10-26T05:10:54;11.30;99.90
21123;DHT22;10719;48.130;11.630;2022-10-26T05:13:20;11.30;99.90
21123;DHT22;10719;48.130;11.630;2022-10-26T05:15:45;11.40;99.90
21123;DHT22;10719;48.130;11.630;2022-10-26T05:18:11;11.50;99.90
21123;DHT22;10719;48.130;11.630;2022-10-26T05:20:36;11.70;99.90
21123;DHT22;10719;48.130;11.630;2022-10-26T05:23:05;11.70;99.90
21123;DHT22;10719;48.130;11.630;2022-10-26T05:25:34;11.70;99.90
21123;DHT22;10719;48.130;11.630;2022-10-26T05:28:01;11.70;99.90
21123;DHT22;10719;48.130;11.630;2022-10-26T05:30:27;11.70;99.90
21123;DHT22;10719;48.130;11.630;2022-10-26T05:32:58;11.70;99.90
21123;DHT22;10719;48.130;11.630;2022-10-26T05:35:25;11.60;99.90
21123;DHT22;10719;48.130;11.630;2022-10-26T05:37:51;11.60;99.90
21123;DHT22;10719;48.130;11.630;2022-10-26T05:40:17;11.60;99.90
21123;DHT22;10719;48.130;11.630;2022-10-26T05:42:43;11.60;99.90
21123;DHT22;10719;48.130;11.630;2022-10-26T05:45:10;11.60;99.90
21123;DHT22;10719;48.130;11.630;2022-10-26T05:47:44;11.60;99.90
21123;DHT22;10719;48.130;11.630;2022-10-26T05:50:11;11.60;99.90
21123;DHT22;10719;48.130;11.630;2022-10-26T05:52:42;11.70;99.90
21123;DHT22;10719;48.130;11.630;2022-10-26T05:55:09;11.70;99.90
21123;DHT22;10719;48.130;11.630;2022-10-26T05:57:36;11.80;99.90
21123;DHT22;10719;48.130;11.630;2022-10-26T06:00:23;11.90;99.90
21123;DHT22;10719;48.130;11.630;2022-10-26T06:05:54;11.90;99.90
21123;DHT22;10719;48.130;11.630;2022-10-26T06:08:21;12.00;99.90
21123;DHT22;10719;48.130;11.630;2022-10-26T06:10:48;12.00;99.90
21123;DHT22;10719;48.130;11.630;2022-10-26T06:13:14;12.00;99.90
21123;DHT22;10719;48.130;11.630;2022-10-26T06:22:19;12.00;99.90
21123;DHT22;10719;48.130;11.630;2022-10-26T06:29:58;12.10;99.90
21123;DHT22;10719;48.130;11.630;2022-10-26T06:32:25;12.00;99.90
21123;DHT22;10719;48.130;11.630;2022-10-26T06:34:55;12.00;99.90
21123;DHT22;10719;48.130;11.630;2022-10-26T06:37:24;11.90;99.90
21123;DHT22;10719;48.130;11.630;2022-10-26T06:39:50;11.90;99.90
21123;DHT22;10719;48.130;11.630;2022-10-26T06:42:17;11.90;99.90
21123;DHT22;10719;48.130;11.630;2022-10-26T06:44:43;11.90;99.90
21123;DHT22;10719;48.130;11.630;2022-10-26T06:47:22;11.90;99.90
21123;DHT22;10719;48.130;11.630;2022-10-26T06:49:59;11.90;99.90
21123;DHT22;10719;48.130;11.630;2022-10-26T06:54:57;11.90;99.90
21123;DHT22;10719;48.130;11.630;2022-10-26T06:57:31;11.90;99.90
21123;DHT22;10719;48.130;11.630;2022-10-26T07:00:00;11.90;99.90
21123;DHT22;10719;48.130;11.630;2022-10-26T07:02:27;11.90;99.90
21123;DHT22;10719;48.130;11.630;2022-10-26T07:04:52;12.00;99.90
21123;DHT22;10719;48.130;11.630;2022-10-26T07:07:20;12.10;99.90
21123;DHT22;10719;48.130;11.630;2022-10-26T07:09:46;12.10;99.90
21123;DHT22;10719;48.130;11.630;2022-10-26T07:12:12;12.10;99.90
21123;DHT22;10719;48.130;11.630;2022-10-26T07:14:37;12.20;99.90
21123;DHT22;10719;48.130;11.630;2022-10-26T07:17:04;12.20;99.90
21123;DHT22;10719;48.130;11.630;2022-10-26T07:19:30;12.20;99.90
21123;DHT22;10719;48.130;11.630;2022-10-26T07:21:56;12.20;99.90
21123;DHT22;10719;48.130;11.630;2022-10-26T07:24:24;12.30;99.90
21123;DHT22;10719;48.130;11.630;2022-10-26T07:26:52;12.30;99.90
21123;DHT22;10719;48.130;11.630;2022-10-26T07:29:17;12.40;99.90
21123;DHT22;10719;48.130;11.630;2022-10-26T07:31:43;12.50;99.90
21123;DHT22;10719;48.130;11.630;2022-10-26T07:34:09;12.60;99.90
21123;DHT22;10719;48.130;11.630;2022-10-26T07:36:34;12.60;99.90
21123;DHT22;10719;48.130;11.630;2022-10-26T07:39:02;12.70;99.90
21123;DHT22;10719;48.130;11.630;2022-10-26T07:41:28;12.80;99.90
21123;DHT22;10719;48.130;11.630;2022-10-26T07:43:54;12.80;99.90
21123;DHT22;10719;48.130;11.630;2022-10-26T07:46:19;12.80;99.90
21123;DHT22;10719;48.130;11.630;2022-10-26T07:48:45;12.80;99.90
21123;DHT22;10719;48.130;11.630;2022-10-26T07:51:10;12.90;99.90
21123;DHT22;10719;48.130;11.630;2022-10-26T07:53:36;12.90;99.90
21123;DHT22;10719;48.130;11.630;2022-10-26T07:56:02;12.90;99.90
21123;DHT22;10719;48.130;11.630;2022-10-26T07:58:27;13.00;99.90
21123;DHT22;10719;48.130;11.630;2022-10-26T08:00:53;12.90;99.90
21123;DHT22;10719;48.130;11.630;2022-10-26T08:03:20;13.10;99.90
21123;DHT22;10719;48.130;11.630;2022-10-26T08:05:47;13.20;99.90
21123;DHT22;10719;48.130;11.630;2022-10-26T08:08:16;13.30;99.90
21123;DHT22;10719;48.130;11.630;2022-10-26T08:10:46;13.30;99.90
21123;DHT22;10719;48.130;11.630;2022-10-26T08:13:12;13.30;99.90
21123;DHT22;10719;48.130;11.630;2022-10-26T08:15:39;13.30;99.90
21123;DHT22;10719;48.130;11.630;2022-10-26T08:18:05;13.30;99.90
21123;DHT22;10719;48.130;11.630;2022-10-26T08:20:31;13.40;99.90
21123;DHT22;10719;48.130;11.630;2022-10-26T08:22:58;13.40;99.90
21123;DHT22;10719;48.130;11.630;2022-10-26T08:25:24;13.40;99.90
21123;DHT22;10719;48.130;11.630;2022-10-26T08:27:50;13.50;99.90
21123;DHT22;10719;48.130;11.630;2022-10-26T08:30:16;13.60;99.90
21123;DHT22;10719;48.130;11.630;2022-10-26T08:32:42;13.70;99.90
21123;DHT22;10719;48.130;11.630;2022-10-26T08:35:08;13.90;99.90
21123;DHT22;10719;48.130;11.630;2022-10-26T08:37:34;13.90;99.90
21123;DHT22;10719;48.130;11.630;2022-10-26T08:40:00;14.10;99.90
21123;DHT22;10719;48.130;11.630;2022-10-26T08:42:33;14.20;99.90
21123;DHT22;10719;48.130;11.630;2022-10-26T08:45:04;14.30;99.90
21123;DHT22;10719;48.130;11.630;2022-10-26T08:47:39;14.60;99.90
21123;DHT22;10719;48.130;11.630;2022-10-26T08:50:17;14.70;99.90
21123;DHT22;10719;48.130;11.630;2022-10-26T08:52:50;14.80;99.90
21123;DHT22;10719;48.130;11.630;2022-10-26T08:55:22;15.00;99.90
21123;DHT22;10719;48.130;11.630;2022-10-26T08:57:50;15.10;99.90
21123;DHT22;10719;48.130;11.630;2022-10-26T09:00:22;15.20;99.90
21123;DHT22;10719;48.130;11.630;2022-10-26T09:02:52;15.20;99.90
21123;DHT22;10719;48.130;11.630;2022-10-26T09:05:22;15.40;99.90
21123;DHT22;10719;48.130;11.630;2022-10-26T09:08:09;15.60;99.90
21123;DHT22;10719;48.130;11.630;2022-10-26T09:10:40;15.80;99.90
21123;DHT22;10719;48.130;11.630;2022-10-26T09:13:30;15.90;99.90
21123;DHT22;10719;48.130;11.630;2022-10-26T09:16:12;16.30;99.90
21123;DHT22;10719;48.130;11.630;2022-10-26T09:19:02;16.50;99.90
21123;DHT22;10719;48.130;11.630;2022-10-26T09:21:46;16.60;99.90
21123;DHT22;10719;48.130;11.630;2022-10-26T09:24:30;16.80;99.90
21123;DHT22;10719;48.130;11.630;2022-10-26T09:29:40;17.00;99.90
21123;DHT22;10719;48.130;11.630;2022-10-26T09:32:14;17.10;99.90
21123;DHT22;10719;48.130;11.630;2022-10-26T09:34:48;17.20;99.90
21123;DHT22;10719;48.130;11.630;2022-10-26T09:37:27;17.40;99.90
21123;DHT22;10719;48.130;11.630;2022-10-26T09:47:57;18.50;99.90
21123;DHT22;10719;48.130;11.630;2022-10-26T09:50:34;19.10;99.90
21123;DHT22;10719;48.130;11.630;2022-10-26T09:53:00;19.00;99.90
21123;DHT22;10719;48.130;11.630;2022-10-26T09:55:27;19.10;99.90
21123;DHT22;10719;48.130;11.630;2022-10-26T09:57:55;18.80;99.90
21123;DHT22;10719;48.130;11.630;2022-10-26T10:00:24;19.10;99.90
21123;DHT22;10719;48.130;11.630;2022-10-26T10:02:52;19.20;99.90
21123;DHT22;10719;48.130;11.630;2022-10-26T10:08:10;19.30;99.90
21123;DHT22;10719;48.130;11.630;2022-10-26T10:10:37;19.10;99.90
21123;DHT22;10719;48.130;11.630;2022-10-26T10:13:16;18.90;99.90
21123;DHT22;10719;48.130;11.630;2022-10-26T10:15:51;19.00;99.90
21123;DHT22;10719;48.130;11.630;2022-10-26T10:18:22;18.90;99.90
21123;DHT22;10719;48.130;11.630;2022-10-26T10:20:55;18.70;99.90
21123;DHT22;10719;48.130;11.630;2022-10-26T10:23:31;18.80;99.90
21123;DHT22;10719;48.130;11.630;2022-10-26T10:26:03;18.80;99.90
21123;DHT22;10719;48.130;11.630;2022-10-26T10:28:30;18.70;99.90
21123;DHT22;10719;48.130;11.630;2022-10-26T10:31:18;18.70;99.90
21123;DHT22;10719;48.130;11.630;2022-10-26T10:33:45;18.70;99.90
21123;DHT22;10719;48.130;11.630;2022-10-26T10:36:16;18.90;99.90
21123;DHT22;10719;48.130;11.630;2022-10-26T10:38:44;19.40;99.90
21123;DHT22;10719;48.130;11.630;2022-10-26T10:41:31;20.50;99.90
21123;DHT22;10719;48.130;11.630;2022-10-26T10:44:25;20.90;99.90
21123;DHT22;10719;48.130;11.630;2022-10-26T10:47:04;20.80;99.90
21123;DHT22;10719;48.130;11.630;2022-10-26T10:49:31;20.60;99.90
21123;DHT22;10719;48.130;11.630;2022-10-26T10:51:57;20.30;99.90
21123;DHT22;10719;48.130;11.630;2022-10-26T10:57:19;20.30;99.90
21123;DHT22;10719;48.130;11.630;2022-10-26T11:00:08;20.10;99.90
21123;DHT22;10719;48.130;11.630;2022-10-26T11:08:08;20.00;99.90
21123;DHT22;10719;48.130;11.630;2022-10-26T11:10:39;19.60;99.90
21123;DHT22;10719;48.130;11.630;2022-10-26T11:13:28;19.50;99.90
21123;DHT22;10719;48.130;11.630;2022-10-26T11:16:00;19.20;99.90
21123;DHT22;10719;48.130;11.630;2022-10-26T11:18:38;19.20;99.90
21123;DHT22;10719;48.130;11.630;2022-10-26T11:23:48;19.10;99.90
21123;DHT22;10719;48.130;11.630;2022-10-26T11:26:20;19.10;99.90
21123;DHT22;10719;48.130;11.630;2022-10-26T11:28:57;19.10;99.90
21123;DHT22;10719;48.130;11.630;2022-10-26T11:31:37;19.10;99.90
21123;DHT22;10719;48.130;11.630;2022-10-26T11:36:41;19.30;99.90
21123;DHT22;10719;48.130;11.630;2022-10-26T11:39:13;19.30;99.90
21123;DHT22;10719;48.130;11.630;2022-10-26T11:41:51;19.40;99.90
21123;DHT22;10719;48.130;11.630;2022-10-26T11:44:34;19.40;99.90
21123;DHT22;10719;48.130;11.630;2022-10-26T11:47:18;19.30;99.90
21123;DHT22;10719;48.130;11.630;2022-10-26T11:49:53;19.30;99.90
21123;DHT22;10719;48.130;11.630;2022-10-26T11:52:39;19.30;99.90
21123;DHT22;10719;48.130;11.630;2022-10-26T11:55:09;19.20;99.90
21123;DHT22;10719;48.130;11.630;2022-10-26T11:57:36;19.40;99.90
21123;DHT22;10719;48.130;11.630;2022-10-26T12:00:15;19.70;99.90
21123;DHT22;10719;48.130;11.630;2022-10-26T12:02:42;20.50;99.90
21123;DHT22;10719;48.130;11.630;2022-10-26T12:05:31;20.60;99.90
21123;DHT22;10719;48.130;11.630;2022-10-26T12:08:05;20.10;99.90
21123;DHT22;10719;48.130;11.630;2022-10-26T12:10:35;19.50;99.90
21123;DHT22;10719;48.130;11.630;2022-10-26T12:13:20;19.30;99.90
21123;DHT22;10719;48.130;11.630;2022-10-26T12:18:50;19.00;99.90
21123;DHT22;10719;48.130;11.630;2022-10-26T12:21:18;18.80;99.90
21123;DHT22;10719;48.130;11.630;2022-10-26T12:23:56;18.70;99.90
21123;DHT22;10719;48.130;11.630;2022-10-26T12:29:21;18.60;99.90
21123;DHT22;10719;48.130;11.630;2022-10-26T12:31:48;18.60;99.90
21123;DHT22;10719;48.130;11.630;2022-10-26T12:39:32;18.80;99.90
21123;DHT22;10719;48.130;11.630;2022-10-26T12:47:08;19.10;99.90
21123;DHT22;10719;48.130;11.630;2022-10-26T12:52:47;19.30;99.90
21123;DHT22;10719;48.130;11.630;2022-10-26T13:04:36;20.00;99.90
21123;DHT22;10719;48.130;11.630;2022-10-26T13:09:54;20.10;99.90
21123;DHT22;10719;48.130;11.630;2022-10-26T13:12:21;21.40;99.90
21123;DHT22;10719;48.130;11.630;2022-10-26T13:15:02;22.80;99.90
21123;DHT22;10719;48.130;11.630;2022-10-26T13:17:31;24.40;99.90
21123;DHT22;10719;48.130;11.630;2022-10-26T13:20:03;25.00;99.90
21123;DHT22;10719;48.130;11.630;2022-10-26T13:22:30;24.80;99.90
21123;DHT22;10719;48.130;11.630;2022-10-26T13:25:01;24.50;99.90
21123;DHT22;10719;48.130;11.630;2022-10-26T13:32:52;23.10;99.90
21123;DHT22;10719;48.130;11.630;2022-10-26T13:35:22;21.90;99.90
21123;DHT22;10719;48.130;11.630;2022-10-26T13:37:51;21.40;99.90
21123;DHT22;10719;48.130;11.630;2022-10-26T13:40:20;20.70;99.90
21123;DHT22;10719;48.130;11.630;2022-10-26T13:42:53;20.30;99.90
21123;DHT22;10719;48.130;11.630;2022-10-26T13:45:26;19.90;99.90
21123;DHT22;10719;48.130;11.630;2022-10-26T13:50:48;19.70;99.90
21123;DHT22;10719;48.130;11.630;2022-10-26T13:53:27;19.60;99.90
21123;DHT22;10719;48.130;11.630;2022-10-26T13:59:02;19.50;99.90
21123;DHT22;10719;48.130;11.630;2022-10-26T14:01:29;19.50;99.90
21123;DHT22;10719;48.130;11.630;2022-10-26T14:03:55;19.50;99.90
21123;DHT22;10719;48.130;11.630;2022-10-26T14:06:32;19.40;99.90
21123;DHT22;10719;48.130;11.630;2022-10-26T14:09:15;19.30;99.90
21123;DHT22;10719;48.130;11.630;2022-10-26T14:11:58;19.50;99.90
21123;DHT22;10719;48.130;11.630;2022-10-26T14:14:32;19.60;99.90
21123;DHT22;10719;48.130;11.630;2022-10-26T14:16:59;19.50;99.90
21123;DHT22;10719;48.130;11.630;2022-10-26T14:19:32;19.50;99.90
21123;DHT22;10719;48.130;11.630;2022-10-26T14:21:59;19.50;99.90
21123;DHT22;10719;48.130;11.630;2022-10-26T14:24:33;19.40;99.90
21123;DHT22;10719;48.130;11.630;2022-10-26T14:26:59;19.50;99.90
21123;DHT22;10719;48.130;11.630;2022-10-26T14:29:27;19.60;99.90
21123;DHT22;10719;48.130;11.630;2022-10-26T14:31:56;19.60;99.90
21123;DHT22;10719;48.130;11.630;2022-10-26T14:34:22;19.50;99.90
21123;DHT22;10719;48.130;11.630;2022-10-26T14:36:51;19.50;99.90
21123;DHT22;10719;48.130;11.630;2022-10-26T14:39:38;19.30;99.90
21123;DHT22;10719;48.130;11.630;2022-10-26T14:42:32;19.30;99.90
21123;DHT22;10719;48.130;11.630;2022-10-26T14:44:59;19.10;99.90
21123;DHT22;10719;48.130;11.630;2022-10-26T14:47:28;19.10;99.90
21123;DHT22;10719;48.130;11.630;2022-10-26T14:49:55;19.00;99.90
21123;DHT22;10719;48.130;11.630;2022-10-26T14:52:23;19.00;99.90
21123;DHT22;10719;48.130;11.630;2022-10-26T14:55:15;19.10;99.90
21123;DHT22;10719;48.130;11.630;2022-10-26T14:57:42;18.90;99.90
21123;DHT22;10719;48.130;11.630;2022-10-26T15:00:20;18.90;99.90
21123;DHT22;10719;48.130;11.630;2022-10-26T15:02:48;18.90;99.90
21123;DHT22;10719;48.130;11.630;2022-10-26T15:07:49;18.70;99.90
21123;DHT22;10719;48.130;11.630;2022-10-26T15:13:32;18.60;99.90
21123;DHT22;10719;48.130;11.630;2022-10-26T15:16:09;18.60;99.90
21123;DHT22;10719;48.130;11.630;2022-10-26T15:18:36;18.50;99.90
21123;DHT22;10719;48.130;11.630;2022-10-26T15:23:48;18.50;99.90
21123;DHT22;10719;48.130;11.630;2022-10-26T15:26:14;18.30;99.90
21123;DHT22;10719;48.130;11.630;2022-10-26T15:28:40;18.30;99.90
21123;DHT22;10719;48.130;11.630;2022-10-26T15:33:38;18.00;99.90
21123;DHT22;10719;48.130;11.630;2022-10-26T15:38:36;17.80;99.90
21123;DHT22;10719;48.130;11.630;2022-10-26T15:43:47;17.60;99.90
21123;DHT22;10719;48.130;11.630;2022-10-26T15:46:14;17.60;99.90
21123;DHT22;10719;48.130;11.630;2022-10-26T15:48:40;17.50;99.90
21123;DHT22;10719;48.130;11.630;2022-10-26T15:51:10;17.40;99.90
21123;DHT22;10719;48.130;11.630;2022-10-26T15:53:36;17.30;99.90
21123;DHT22;10719;48.130;11.630;2022-10-26T15:56:03;17.30;99.90
21123;DHT22;10719;48.130;11.630;2022-10-26T15:58:33;17.20;99.90
21123;DHT22;10719;48.130;11.630;2022-10-26T16:00:58;17.20;99.90
21123;DHT22;10719;48.130;11.630;2022-10-26T16:03:25;17.10;99.90
21123;DHT22;10719;48.130;11.630;2022-10-26T16:05:56;17.00;99.90
21123;DHT22;10719;48.130;11.630;2022-10-26T16:08:22;16.90;99.90
21123;DHT22;10719;48.130;11.630;2022-10-26T16:10:49;16.90;99.90
21123;DHT22;10719;48.130;11.630;2022-10-26T16:13:16;16.80;99.90
21123;DHT22;10719;48.130;11.630;2022-10-26T16:15:41;16.70;99.90
21123;DHT22;10719;48.130;11.630;2022-10-26T16:18:07;16.70;99.90
21123;DHT22;10719;48.130;11.630;2022-10-26T16:20:33;16.60;99.90
21123;DHT22;10719;48.130;11.630;2022-10-26T16:22:58;16.50;99.90
21123;DHT22;10719;48.130;11.630;2022-10-26T16:25:31;16.50;99.90
21123;DHT22;10719;48.130;11.630;2022-10-26T16:27:57;16.40;99.90
21123;DHT22;10719;48.130;11.630;2022-10-26T16:30:22;16.40;99.90
21123;DHT22;10719;48.130;11.630;2022-10-26T16:32:48;16.40;99.90
21123;DHT22;10719;48.130;11.630;2022-10-26T16:35:14;16.30;99.90
21123;DHT22;10719;48.130;11.630;2022-10-26T16:37:39;16.30;99.90
21123;DHT22;10719;48.130;11.630;2022-10-26T16:40:06;16.30;99.90
21123;DHT22;10719;48.130;11.630;2022-10-26T16:42:32;16.20;99.90
21123;DHT22;10719;48.130;11.630;2022-10-26T16:44:58;16.20;99.90
21123;DHT22;10719;48.130;11.630;2022-10-26T16:47:24;16.20;99.90
21123;DHT22;10719;48.130;11.630;2022-10-26T16:49:50;16.10;99.90
21123;DHT22;10719;48.130;11.630;2022-10-26T16:52:15;16.20;99.90
21123;DHT22;10719;48.130;11.630;2022-10-26T16:54:41;16.20;99.90
21123;DHT22;10719;48.130;11.630;2022-10-26T16:57:07;16.20;99.90
21123;DHT22;10719;48.130;11.630;2022-10-26T16:59:32;16.20;99.90
21123;DHT22;10719;48.130;11.630;2022-10-26T17:01:58;16.10;99.90
21123;DHT22;10719;48.130;11.630;2022-10-26T17:04:24;16.10;99.90
21123;DHT22;10719;48.130;11.630;2022-10-26T17:06:49;16.00;99.90
21123;DHT22;10719;48.130;11.630;2022-10-26T17:09:15;16.00;99.90
21123;DHT22;10719;48.130;11.630;2022-10-26T17:11:41;16.00;99.90
21123;DHT22;10719;48.130;11.630;2022-10-26T17:14:06;16.00;99.90
21123;DHT22;10719;48.130;11.630;2022-10-26T17:16:32;15.90;99.90
21123;DHT22;10719;48.130;11.630;2022-10-26T17:18:59;15.90;99.90
21123;DHT22;10719;48.130;11.630;2022-10-26T17:21:34;15.90;99.90
21123;DHT22;10719;48.130;11.630;2022-10-26T17:24:00;15.80;99.90
21123;DHT22;10719;48.130;11.630;2022-10-26T17:26:26;15.80;99.90
21123;DHT22;10719;48.130;11.630;2022-10-26T17:28:56;15.80;99.90
21123;DHT22;10719;48.130;11.630;2022-10-26T17:31:23;15.80;99.90
21123;DHT22;10719;48.130;11.630;2022-10-26T17:33:49;15.80;99.90